Time;durP1;ratioP1;P1;durP2;ratioP2;P2;SDS_P1;SDS_P2;PMS_P1;PMS_P2;Temp;Humidity;BMP_temperature;BMP_pressure;BME280_temperature;BME280_humidity;BME280_pressure;Samples;Min_cycle;Max_cycle;Signal;HPM_P1;HPM_P2
2022/07/03 00:01:38;;;;;;;2.47;2.00;;;21.40;99.90;;;;;;5027779;28;20393;-61
2022/07/03 00:04:04;;;;;;;2.77;1.63;;;21.50;99.90;;;;;;5009444;28;20670;-61
2022/07/03 00:06:31;;;;;;;2.95;2.00;;;21.50;99.90;;;;;;5010397;28;20403;-60
2022/07/03 00:08:58;;;;;;;2.58;1.88;;;21.50;99.90;;;;;;5011458;28;20470;-62
2022/07/03 00:11:25;;;;;;;1.98;1.70;;;21.50;99.90;;;;;;5013724;28;20390;-60
2022/07/03 00:13:50;;;;;;;2.70;1.73;;;21.40;99.90;;;;;;5013307;28;20447;-61
2022/07/03 00:16:16;;;;;;;2.60;1.60;;;21.30;99.90;;;;;;5030620;28;20580;-61
2022/07/03 00:18:42;;;;;;;2.85;1.77;;;21.20;99.90;;;;;;5030408;28;20660;-61
2022/07/03 00:21:09;;;;;;;2.42;1.67;;;21.10;99.90;;;;;;5031399;28;21032;-59
2022/07/03 00:23:44;;;;;;;1.92;1.40;;;21.20;99.90;;;;;;5015962;28;20654;-68
2022/07/03 00:26:13;;;;;;;4.55;1.63;;;21.20;99.90;;;;;;5016482;28;20395;-68
2022/07/03 00:28:39;;;;;;;7.00;1.92;;;21.20;99.90;;;;;;5014716;28;20671;-68
2022/07/03 00:31:08;;;;;;;2.10;1.55;;;21.20;99.90;;;;;;5013576;28;20460;-68
2022/07/03 00:33:35;;;;;;;2.92;1.88;;;21.20;99.90;;;;;;5029155;28;20395;-68
2022/07/03 00:36:02;;;;;;;2.88;2.33;;;21.20;99.90;;;;;;5013301;28;20398;-68
2022/07/03 00:38:28;;;;;;;3.08;2.20;;;21.20;99.90;;;;;;5012746;28;20510;-68
2022/07/03 00:40:53;;;;;;;4.67;2.53;;;21.20;99.90;;;;;;5030530;28;20409;-68
2022/07/03 00:43:20;;;;;;;3.00;2.27;;;21.20;99.90;;;;;;5014642;28;20540;-68
2022/07/03 00:45:48;;;;;;;4.00;2.70;;;21.10;99.90;;;;;;5013810;28;20383;-68
2022/07/03 00:48:15;;;;;;;2.58;2.33;;;21.10;99.90;;;;;;5014321;28;20387;-68
2022/07/03 00:50:46;;;;;;;3.73;2.50;;;21.10;99.90;;;;;;5033038;28;20567;-67
2022/07/03 00:53:13;;;;;;;3.75;2.58;;;21.10;99.90;;;;;;5015671;28;20923;-68
2022/07/03 00:55:43;;;;;;;2.38;1.90;;;21.10;99.90;;;;;;5015500;28;20388;-68
2022/07/03 00:58:09;;;;;;;3.08;2.10;;;21.00;99.90;;;;;;5015780;28;20382;-68
2022/07/03 01:00:39;;;;;;;2.60;2.00;;;21.00;99.90;;;;;;5033344;28;20459;-68
2022/07/03 01:03:16;;;;;;;5.47;2.00;;;21.00;99.90;;;;;;5015445;28;20414;-68
2022/07/03 01:05:49;;;;;;;2.03;1.60;;;21.00;99.90;;;;;;5014554;28;20629;-66
2022/07/03 01:08:26;;;;;;;2.28;1.55;;;21.00;99.90;;;;;;5031417;28;20430;-66
2022/07/03 01:11:05;;;;;;;2.22;1.38;;;21.00;99.90;;;;;;5012393;28;20390;-66
2022/07/03 01:14:08;;;;;;;2.00;1.50;;;21.00;99.90;;;;;;5012729;28;20428;-66
2022/07/03 01:17:18;;;;;;;1.65;1.33;;;21.10;99.90;;;;;;5030270;28;20474;-66
2022/07/03 01:19:48;;;;;;;1.67;1.43;;;21.00;99.90;;;;;;5008797;28;20715;-66
2022/07/03 01:22:52;;;;;;;2.40;1.38;;;21.00;99.90;;;;;;5012991;28;20383;-66
2022/07/03 01:25:46;;;;;;;1.60;1.30;;;21.00;99.90;;;;;;5013359;28;20405;-66
2022/07/03 01:28:15;;;;;;;1.80;1.45;;;21.00;99.90;;;;;;5014103;28;20383;-66
2022/07/03 01:30:52;;;;;;;3.05;1.30;;;21.00;99.90;;;;;;5014730;28;20380;-66
2022/07/03 01:33:24;;;;;;;2.42;1.40;;;21.00;99.90;;;;;;5015719;28;20403;-66
2022/07/03 01:36:07;;;;;;;2.35;1.30;;;21.00;99.90;;;;;;5016360;28;20717;-66
2022/07/03 01:38:35;;;;;;;2.40;1.48;;;21.00;99.90;;;;;;5033276;28;20414;-66
2022/07/03 01:41:04;;;;;;;2.58;1.40;;;21.00;99.90;;;;;;5016313;28;20651;-66
2022/07/03 01:43:33;;;;;;;1.40;1.20;;;21.00;99.90;;;;;;5015013;28;21218;-67
2022/07/03 01:46:03;;;;;;;2.80;1.33;;;21.00;99.90;;;;;;5033440;28;20422;-66
2022/07/03 01:48:30;;;;;;;1.73;1.30;;;21.00;99.90;;;;;;5015465;28;20409;-66
2022/07/03 01:50:57;;;;;;;3.80;1.50;;;21.00;99.90;;;;;;5031839;28;20814;-66
2022/07/03 01:53:28;;;;;;;1.65;1.08;;;21.00;99.90;;;;;;5014639;28;20440;-66
2022/07/03 01:56:01;;;;;;;1.83;1.27;;;20.90;99.90;;;;;;5013269;28;20391;-66
2022/07/03 01:58:27;;;;;;;1.42;1.20;;;20.90;99.90;;;;;;5013069;28;20403;-66
2022/07/03 02:01:03;;;;;;;2.50;1.30;;;20.90;99.90;;;;;;5013451;28;20387;-66
2022/07/03 02:03:31;;;;;;;1.50;1.20;;;20.90;99.90;;;;;;5030473;28;20824;-66
2022/07/03 02:06:02;;;;;;;3.40;1.30;;;20.90;99.90;;;;;;5013128;28;20498;-66
2022/07/03 02:08:46;;;;;;;2.37;1.30;;;20.90;99.90;;;;;;5014086;28;20529;-66
2022/07/03 02:11:21;;;;;;;1.77;1.10;;;20.90;99.90;;;;;;5043887;28;20394;-66
2022/07/03 02:13:58;;;;;;;2.60;1.30;;;20.90;99.90;;;;;;5030714;28;20394;-65
2022/07/03 02:16:26;;;;;;;2.97;1.10;;;20.90;99.90;;;;;;5013662;28;20387;-66
2022/07/03 02:19:02;;;;;;;1.90;1.10;;;20.90;99.90;;;;;;5030627;28;20518;-65
2022/07/03 02:21:29;;;;;;;1.80;1.23;;;20.90;99.90;;;;;;5031335;28;20663;-65
2022/07/03 02:24:13;;;;;;;2.90;1.40;;;20.90;99.90;;;;;;5029531;28;20641;-65
2022/07/03 02:26:40;;;;;;;1.35;1.00;;;20.90;99.90;;;;;;5011085;28;20648;-65
2022/07/03 02:29:12;;;;;;;2.85;1.17;;;20.90;99.90;;;;;;5009252;28;20395;-65
2022/07/03 02:31:42;;;;;;;1.17;1.00;;;20.90;99.90;;;;;;5006884;28;20421;-65
2022/07/03 02:34:11;;;;;;;2.53;1.52;;;20.90;99.90;;;;;;5011844;28;20919;-65
2022/07/03 02:36:39;;;;;;;2.08;1.35;;;20.90;99.90;;;;;;5011130;28;20421;-65
2022/07/03 02:39:11;;;;;;;2.90;1.20;;;20.90;99.90;;;;;;5012177;28;20679;-65
2022/07/03 02:41:46;;;;;;;2.08;1.10;;;20.90;99.90;;;;;;5013007;28;20798;-65
2022/07/03 02:44:42;;;;;;;2.28;1.25;;;20.80;99.90;;;;;;5013951;28;20375;-65
2022/07/03 02:47:33;;;;;;;3.75;1.40;;;20.90;99.90;;;;;;5005523;28;20398;-65
2022/07/03 02:50:05;;;;;;;3.13;1.02;;;20.80;99.90;;;;;;5012046;28;20407;-65
2022/07/03 02:52:43;;;;;;;2.28;1.20;;;20.80;99.90;;;;;;5027677;28;20393;-65
2022/07/03 02:55:44;;;;;;;1.20;1.00;;;20.80;99.90;;;;;;5027575;28;20470;-65
2022/07/03 02:58:35;;;;;;;1.17;1.08;;;20.80;99.90;;;;;;5010139;28;20391;-65
2022/07/03 03:01:28;;;;;;;1.90;1.20;;;20.80;99.90;;;;;;5028687;28;20382;-65
2022/07/03 03:04:21;;;;;;;2.63;1.25;;;20.80;99.90;;;;;;5009619;28;20407;-65
2022/07/03 03:07:17;;;;;;;3.07;1.20;;;20.80;99.90;;;;;;5027943;28;20401;-66
2022/07/03 03:09:45;;;;;;;4.03;1.30;;;20.80;99.90;;;;;;5016977;28;20525;-65
2022/07/03 03:12:12;;;;;;;1.98;1.30;;;20.80;99.90;;;;;;5028541;28;20771;-66
2022/07/03 03:14:47;;;;;;;1.45;1.20;;;20.70;99.90;;;;;;5030965;28;20383;-65
2022/07/03 03:17:18;;;;;;;1.63;1.10;;;20.70;99.90;;;;;;5012561;28;20398;-66
2022/07/03 03:19:50;;;;;;;2.20;1.02;;;20.70;99.90;;;;;;5028237;28;20477;-65
2022/07/03 03:22:40;;;;;;;3.72;1.20;;;20.70;99.90;;;;;;5011667;28;20453;-66
2022/07/03 03:25:06;;;;;;;1.52;1.20;;;20.70;99.90;;;;;;5012536;28;20844;-66
2022/07/03 03:27:32;;;;;;;1.85;1.02;;;20.60;99.90;;;;;;5011929;28;20383;-65
2022/07/03 03:29:58;;;;;;;3.38;1.40;;;20.60;99.90;;;;;;5028508;28;20481;-66
2022/07/03 03:32:25;;;;;;;2.20;1.20;;;20.60;99.90;;;;;;5012078;28;20398;-66
2022/07/03 03:34:51;;;;;;;2.35;1.20;;;20.60;99.90;;;;;;5012585;28;20429;-66
2022/07/03 03:37:17;;;;;;;1.02;1.00;;;20.60;99.90;;;;;;5009580;28;20432;-67
2022/07/03 03:39:43;;;;;;;2.80;1.23;;;20.50;99.90;;;;;;5009235;28;20427;-66
2022/07/03 03:42:08;;;;;;;1.42;1.30;;;20.50;99.90;;;;;;5008825;28;20875;-66
2022/07/03 03:44:35;;;;;;;2.03;1.20;;;20.50;99.90;;;;;;5010246;28;20403;-66
2022/07/03 03:47:01;;;;;;;1.35;1.25;;;20.50;99.90;;;;;;5011204;28;20403;-66
2022/07/03 03:49:28;;;;;;;1.60;1.13;;;20.50;99.90;;;;;;5012461;28;20401;-66
2022/07/03 03:51:54;;;;;;;2.20;1.20;;;20.40;99.90;;;;;;4996457;28;20432;-66
2022/07/03 03:54:20;;;;;;;3.20;1.27;;;20.40;99.90;;;;;;5014039;28;20396;-66
2022/07/03 03:56:46;;;;;;;5.45;1.42;;;20.30;99.90;;;;;;5013323;28;20407;-66
2022/07/03 03:59:12;;;;;;;3.20;1.40;;;20.30;99.90;;;;;;5014269;28;20408;-66
2022/07/03 04:01:37;;;;;;;1.30;1.10;;;20.30;99.90;;;;;;5014531;28;20474;-66
2022/07/03 04:04:03;;;;;;;3.10;1.20;;;20.40;99.90;;;;;;5012885;28;20381;-66
2022/07/03 04:06:29;;;;;;;2.10;1.30;;;20.30;99.90;;;;;;5010608;28;20401;-66
2022/07/03 04:08:54;;;;;;;1.40;1.00;;;20.30;99.90;;;;;;5013392;28;20571;-66
2022/07/03 04:11:20;;;;;;;1.87;1.10;;;20.20;99.90;;;;;;5011486;28;20392;-66
2022/07/03 04:13:46;;;;;;;3.40;1.20;;;20.30;99.90;;;;;;5010830;28;20461;-67
2022/07/03 04:16:12;;;;;;;4.70;1.38;;;20.30;99.90;;;;;;5010389;28;20384;-66
2022/07/03 04:18:38;;;;;;;2.60;1.30;;;20.20;99.90;;;;;;5011614;28;20697;-66
2022/07/03 04:21:03;;;;;;;1.90;1.30;;;20.20;99.90;;;;;;5011126;28;20669;-66
2022/07/03 04:23:30;;;;;;;1.80;1.23;;;20.20;99.90;;;;;;5009176;28;20404;-67
2022/07/03 04:25:55;;;;;;;3.13;1.27;;;20.20;99.90;;;;;;5009728;28;20389;-66
2022/07/03 04:28:21;;;;;;;2.70;1.40;;;20.20;99.90;;;;;;5008280;28;20392;-66
2022/07/03 04:30:47;;;;;;;3.50;1.23;;;20.20;99.90;;;;;;5008002;28;20431;-66
2022/07/03 04:33:13;;;;;;;2.53;1.40;;;20.20;99.90;;;;;;5008389;28;20890;-66
2022/07/03 04:35:38;;;;;;;2.10;1.00;;;20.10;99.90;;;;;;5011131;28;20385;-66
2022/07/03 04:38:04;;;;;;;1.77;1.50;;;20.10;99.90;;;;;;5022480;28;20414;-66
2022/07/03 04:40:30;;;;;;;1.55;1.20;;;20.10;99.90;;;;;;5029403;28;20444;-66
2022/07/03 04:42:55;;;;;;;4.50;1.55;;;20.10;99.90;;;;;;5030942;28;20427;-66
2022/07/03 04:45:21;;;;;;;2.30;1.60;;;20.10;99.90;;;;;;5016421;28;20387;-66
2022/07/03 04:47:47;;;;;;;2.15;1.30;;;20.10;99.90;;;;;;5016062;28;20399;-66
2022/07/03 04:50:12;;;;;;;1.38;1.27;;;20.10;99.90;;;;;;5031801;28;20818;-66
2022/07/03 04:52:38;;;;;;;1.50;1.30;;;20.20;99.90;;;;;;5015270;28;20630;-66
2022/07/03 04:55:04;;;;;;;5.00;1.55;;;20.10;99.90;;;;;;5014355;28;20398;-66
2022/07/03 04:57:29;;;;;;;2.45;1.33;;;20.10;99.90;;;;;;5012587;28;20413;-66
2022/07/03 04:59:58;;;;;;;1.83;1.30;;;20.10;99.90;;;;;;5011787;28;20453;-65
2022/07/03 05:02:23;;;;;;;1.35;1.17;;;20.00;99.90;;;;;;5009695;28;20462;-66
2022/07/03 05:04:49;;;;;;;1.30;1.20;;;20.10;99.90;;;;;;5026406;28;20391;-65
2022/07/03 05:07:14;;;;;;;2.30;1.30;;;20.20;99.90;;;;;;5027802;28;20379;-66
2022/07/03 05:09:40;;;;;;;3.07;1.50;;;20.20;99.90;;;;;;5009883;28;20482;-66
2022/07/03 05:12:06;;;;;;;2.28;1.48;;;20.20;99.90;;;;;;5012894;28;20464;-66
2022/07/03 05:14:31;;;;;;;3.47;1.40;;;20.30;99.90;;;;;;5011501;28;20541;-66
2022/07/03 05:16:57;;;;;;;1.93;1.20;;;20.20;99.90;;;;;;5027731;28;20782;-66
2022/07/03 05:19:22;;;;;;;2.80;1.50;;;20.20;99.90;;;;;;5010309;28;20422;-66
2022/07/03 05:21:48;;;;;;;2.67;1.30;;;20.10;99.90;;;;;;5028921;28;20384;-66
2022/07/03 05:24:13;;;;;;;3.80;2.15;;;20.10;99.90;;;;;;5013118;28;20379;-66
2022/07/03 05:26:40;;;;;;;3.17;2.17;;;20.20;99.90;;;;;;5028297;28;20391;-66
2022/07/03 05:29:05;;;;;;;3.45;1.98;;;20.10;99.90;;;;;;5012006;28;20395;-66
2022/07/03 05:31:31;;;;;;;4.57;1.80;;;20.00;99.90;;;;;;5013416;28;20651;-67
2022/07/03 05:33:56;;;;;;;2.30;1.60;;;19.90;99.90;;;;;;5013358;28;20482;-66
2022/07/03 05:36:22;;;;;;;2.90;1.70;;;19.90;99.90;;;;;;5012421;28;20604;-66
2022/07/03 05:41:32;;;;;;;2.70;1.50;;;20.00;99.90;;;;;;5012018;28;20388;-66
2022/07/03 05:43:57;;;;;;;2.35;1.45;;;20.10;99.90;;;;;;5014443;28;20406;-66
2022/07/03 05:46:23;;;;;;;2.10;1.70;;;20.20;99.90;;;;;;5011343;28;20381;-66
2022/07/03 05:48:48;;;;;;;2.00;1.30;;;20.30;99.90;;;;;;5008378;28;20492;-66
2022/07/03 05:51:14;;;;;;;1.35;1.25;;;20.30;99.90;;;;;;5008077;28;20399;-66
2022/07/03 05:53:40;;;;;;;2.30;1.83;;;20.40;99.90;;;;;;5006720;28;20392;-66
2022/07/03 05:56:05;;;;;;;3.50;1.73;;;20.30;99.90;;;;;;5006704;28;20804;-66
2022/07/03 05:58:31;;;;;;;2.60;1.50;;;20.20;99.90;;;;;;5004501;28;20665;-66
2022/07/03 06:00:57;;;;;;;4.13;1.80;;;20.30;99.90;;;;;;5005599;28;20384;-66
2022/07/03 06:03:22;;;;;;;1.60;1.10;;;20.30;99.90;;;;;;5005725;28;20435;-66
2022/07/03 06:05:48;;;;;;;1.60;1.30;;;20.30;99.90;;;;;;5005423;28;20675;-66
2022/07/03 06:08:13;;;;;;;1.50;1.38;;;20.40;99.90;;;;;;5005653;28;20388;-66
2022/07/03 06:10:39;;;;;;;2.20;1.60;;;20.50;99.90;;;;;;5005163;28;20396;-66
2022/07/03 06:13:05;;;;;;;2.03;1.73;;;20.60;99.90;;;;;;5003616;28;20385;-65
2022/07/03 06:15:30;;;;;;;3.00;1.53;;;20.60;99.90;;;;;;5003736;28;20388;-66
2022/07/03 06:17:56;;;;;;;2.17;1.63;;;20.60;99.90;;;;;;5003829;28;20517;-66
2022/07/03 06:20:21;;;;;;;1.80;1.50;;;20.60;99.90;;;;;;5003261;28;20499;-66
2022/07/03 06:22:47;;;;;;;2.57;1.70;;;20.50;99.90;;;;;;5005293;28;20451;-66
2022/07/03 06:25:13;;;;;;;2.40;1.60;;;20.60;99.90;;;;;;5004080;28;20396;-66
2022/07/03 06:27:39;;;;;;;4.43;1.77;;;20.50;99.90;;;;;;5002588;28;20582;-66
2022/07/03 06:30:05;;;;;;;2.38;1.50;;;20.50;99.90;;;;;;5003625;28;20503;-66
2022/07/03 06:32:30;;;;;;;2.05;1.42;;;20.40;99.90;;;;;;5006426;28;20412;-66
2022/07/03 06:34:56;;;;;;;1.45;1.33;;;20.60;99.90;;;;;;5005636;28;20439;-66
2022/07/03 06:37:22;;;;;;;1.70;1.30;;;20.70;99.90;;;;;;5004219;28;20887;-66
2022/07/03 06:39:47;;;;;;;2.10;1.60;;;20.80;99.90;;;;;;5003342;28;20475;-66
2022/07/03 06:42:13;;;;;;;2.33;1.30;;;20.80;99.90;;;;;;5002298;28;20806;-66
2022/07/03 06:44:39;;;;;;;3.35;1.60;;;20.90;99.90;;;;;;5003902;28;20435;-66
2022/07/03 06:47:04;;;;;;;3.25;1.70;;;20.80;99.90;;;;;;5002353;28;20411;-66
2022/07/03 06:49:33;;;;;;;2.50;1.53;;;20.70;99.90;;;;;;5002448;28;20411;-66
2022/07/03 06:51:59;;;;;;;3.97;1.88;;;20.70;99.90;;;;;;4993525;28;20398;-66
2022/07/03 06:54:24;;;;;;;2.08;1.50;;;20.80;99.90;;;;;;4989733;28;20395;-66
2022/07/03 06:56:50;;;;;;;2.80;1.77;;;20.80;99.90;;;;;;4988861;28;20391;-66
2022/07/03 06:59:15;;;;;;;2.85;1.55;;;21.00;99.90;;;;;;4988106;28;20410;-66
2022/07/03 07:01:41;;;;;;;2.60;1.40;;;21.00;99.90;;;;;;4987443;28;20390;-66
2022/07/03 07:04:07;;;;;;;4.43;2.10;;;21.10;99.90;;;;;;4986115;28;20390;-66
2022/07/03 07:06:32;;;;;;;2.20;1.60;;;21.20;99.90;;;;;;4986675;28;20774;-66
2022/07/03 07:08:58;;;;;;;4.63;1.77;;;21.30;99.90;;;;;;4985971;28;21012;-66
2022/07/03 07:11:24;;;;;;;3.60;1.70;;;21.30;99.90;;;;;;4985041;28;20759;-67
2022/07/03 07:13:49;;;;;;;4.47;2.08;;;21.30;99.90;;;;;;4982827;28;20656;-66
2022/07/03 07:16:15;;;;;;;3.13;1.60;;;21.40;99.90;;;;;;4985160;28;20429;-66
2022/07/03 07:18:42;;;;;;;1.90;1.40;;;21.50;99.90;;;;;;4989822;28;20429;-66
2022/07/03 07:21:08;;;;;;;1.77;1.50;;;21.60;99.90;;;;;;4987221;28;20391;-66
2022/07/03 07:23:34;;;;;;;1.83;1.40;;;21.60;99.90;;;;;;4988703;28;20394;-66
2022/07/03 07:25:59;;;;;;;2.07;1.33;;;21.70;99.90;;;;;;4990156;28;20845;-66
2022/07/03 07:28:25;;;;;;;2.43;1.40;;;21.70;99.90;;;;;;4984702;28;20415;-66
2022/07/03 07:30:53;;;;;;;2.60;1.10;;;21.80;99.90;;;;;;4973201;28;20400;-66
2022/07/03 07:33:19;;;;;;;1.90;1.35;;;21.80;99.90;;;;;;4972655;28;20494;-66
2022/07/03 07:35:45;;;;;;;1.98;1.27;;;22.00;99.90;;;;;;4966970;28;20479;-66
2022/07/03 07:38:10;;;;;;;3.13;1.30;;;21.90;99.90;;;;;;4992272;28;20441;-66
2022/07/03 07:40:36;;;;;;;2.22;1.33;;;22.00;99.90;;;;;;4980370;28;20796;-66
2022/07/03 07:43:01;;;;;;;1.35;1.10;;;22.00;99.90;;;;;;4996228;28;20386;-66
2022/07/03 07:45:27;;;;;;;3.17;1.17;;;22.00;99.90;;;;;;4980166;28;20412;-66
2022/07/03 07:47:52;;;;;;;1.75;1.20;;;22.10;99.90;;;;;;4978228;28;20398;-66
2022/07/03 07:50:18;;;;;;;1.17;1.07;;;22.10;99.90;;;;;;4982701;28;20448;-66
2022/07/03 07:52:43;;;;;;;1.80;1.60;;;22.20;99.90;;;;;;4982366;28;20674;-66
2022/07/03 07:55:09;;;;;;;0.90;0.90;;;22.20;99.90;;;;;;4982973;28;20953;-66
2022/07/03 07:57:36;;;;;;;1.57;1.30;;;22.30;99.90;;;;;;4980426;28;20399;-66
2022/07/03 08:00:09;;;;;;;2.17;1.20;;;22.40;99.90;;;;;;4982056;28;20414;-66
2022/07/03 08:05:36;;;;;;;1.50;1.23;;;22.40;99.90;;;;;;4982139;28;20502;-66
2022/07/03 08:08:11;;;;;;;1.70;1.23;;;22.50;99.90;;;;;;4979923;28;20670;-66
2022/07/03 08:10:39;;;;;;;1.98;1.05;;;22.60;99.90;;;;;;4980256;28;20394;-66
2022/07/03 08:13:05;;;;;;;1.90;1.00;;;22.60;99.90;;;;;;4982842;28;20435;-66
2022/07/03 08:15:30;;;;;;;3.05;1.30;;;22.70;99.90;;;;;;4980886;28;20826;-66
2022/07/03 08:17:56;;;;;;;1.25;1.15;;;22.80;99.90;;;;;;4981648;28;20744;-66
2022/07/03 08:20:21;;;;;;;1.63;1.03;;;22.90;99.90;;;;;;4981769;28;20721;-66
2022/07/03 08:22:47;;;;;;;1.23;0.80;;;22.90;99.90;;;;;;4980945;28;20390;-66
2022/07/03 08:25:12;;;;;;;1.47;1.20;;;23.00;99.90;;;;;;4982173;28;20427;-66
2022/07/03 08:27:38;;;;;;;2.43;1.20;;;23.10;99.90;;;;;;4981189;28;20669;-66
2022/07/03 08:30:04;;;;;;;2.07;1.10;;;23.10;99.90;;;;;;4980191;28;20439;-66
2022/07/03 08:32:30;;;;;;;2.77;1.30;;;23.20;99.90;;;;;;4999331;28;20475;-66
2022/07/03 08:34:55;;;;;;;1.13;0.93;;;23.10;99.90;;;;;;4985353;28;20705;-66
2022/07/03 08:37:21;;;;;;;2.70;1.17;;;23.10;99.90;;;;;;4989564;28;20400;-66
2022/07/03 08:39:46;;;;;;;1.17;1.00;;;23.20;99.90;;;;;;4986260;28;20409;-66
2022/07/03 08:42:12;;;;;;;1.60;1.10;;;23.30;99.90;;;;;;5001264;28;20377;-66
2022/07/03 08:44:39;;;;;;;0.98;0.90;;;23.30;99.90;;;;;;5000816;28;20419;-64
2022/07/03 08:47:08;;;;;;;2.10;1.17;;;23.40;99.90;;;;;;4984950;28;20811;-66
2022/07/03 08:49:34;;;;;;;1.80;0.90;;;23.50;99.90;;;;;;4987030;28;20400;-65
2022/07/03 08:52:00;;;;;;;1.85;1.20;;;23.40;99.90;;;;;;4987961;28;20395;-65
2022/07/03 08:54:26;;;;;;;1.27;0.93;;;23.50;99.90;;;;;;5002840;28;20730;-65
2022/07/03 08:56:52;;;;;;;1.95;1.10;;;23.50;99.90;;;;;;5022790;28;20993;-65
2022/07/03 08:59:19;;;;;;;4.47;1.10;;;23.60;99.90;;;;;;4991086;28;21118;-65
2022/07/03 09:01:46;;;;;;;2.30;1.02;;;23.60;99.90;;;;;;5006186;28;20460;-65
2022/07/03 09:04:15;;;;;;;2.00;1.15;;;23.70;99.90;;;;;;5010137;28;20395;-65
2022/07/03 09:06:42;;;;;;;0.90;0.80;;;23.70;99.90;;;;;;5006510;28;20388;-65
2022/07/03 09:09:08;;;;;;;1.00;0.70;;;23.80;99.90;;;;;;5003439;28;20391;-65
2022/07/03 09:11:37;;;;;;;3.73;1.07;;;23.90;99.90;;;;;;5000150;28;20828;-64
2022/07/03 09:14:06;;;;;;;2.08;1.10;;;23.80;99.90;;;;;;4999389;28;20962;-65
2022/07/03 09:16:35;;;;;;;5.70;1.00;;;23.70;99.90;;;;;;5016442;28;20672;-64
2022/07/03 09:19:02;;;;;;;1.20;0.90;;;23.80;99.90;;;;;;4999151;28;20411;-64
2022/07/03 09:21:36;;;;;;;1.80;1.00;;;23.80;99.90;;;;;;5018550;28;20944;-64
2022/07/03 09:24:05;;;;;;;1.17;0.90;;;23.80;99.90;;;;;;5001783;28;20388;-64
2022/07/03 09:26:30;;;;;;;1.10;0.80;;;23.80;99.90;;;;;;5001072;28;20380;-65
2022/07/03 09:28:56;;;;;;;1.93;0.90;;;23.70;99.90;;;;;;5001226;28;20390;-64
2022/07/03 09:31:24;;;;;;;1.50;0.90;;;23.70;99.90;;;;;;5003956;28;20857;-64
2022/07/03 09:33:49;;;;;;;2.53;1.25;;;23.70;99.90;;;;;;5022390;28;20406;-65
2022/07/03 09:36:15;;;;;;;1.73;1.00;;;23.70;99.90;;;;;;5004464;28;20492;-65
2022/07/03 09:38:47;;;;;;;2.55;0.90;;;23.80;99.90;;;;;;5018946;28;20469;-65
2022/07/03 09:41:13;;;;;;;1.65;1.10;;;23.80;99.90;;;;;;5001468;28;20418;-64
2022/07/03 09:43:43;;;;;;;2.00;1.30;;;23.70;99.90;;;;;;5001894;28;20423;-65
2022/07/03 09:46:09;;;;;;;2.50;1.20;;;23.70;99.90;;;;;;5004843;28;20379;-65
2022/07/03 09:48:41;;;;;;;3.03;1.10;;;23.80;99.90;;;;;;5026168;28;20411;-65
2022/07/03 09:51:19;;;;;;;1.85;0.90;;;23.80;99.90;;;;;;5014161;28;20422;-67
2022/07/03 09:53:57;;;;;;;1.17;0.93;;;23.90;99.90;;;;;;5031206;28;20436;-67
2022/07/03 09:56:38;;;;;;;1.52;1.00;;;23.90;99.90;;;;;;5012769;28;20682;-65
2022/07/03 09:59:11;;;;;;;1.83;1.13;;;23.90;99.90;;;;;;5005870;28;20435;-67
2022/07/03 10:01:45;;;;;;;2.58;1.13;;;23.80;99.90;;;;;;5004064;28;20453;-65
2022/07/03 10:04:14;;;;;;;1.80;0.90;;;23.80;99.90;;;;;;5021222;28;20606;-65
2022/07/03 10:06:48;;;;;;;1.83;0.93;;;23.70;99.90;;;;;;5005413;28;20929;-66
2022/07/03 10:09:20;;;;;;;2.10;1.00;;;23.70;99.90;;;;;;5005605;28;20822;-65
2022/07/03 10:11:46;;;;;;;3.05;1.10;;;23.80;99.90;;;;;;5010910;28;20998;-65
2022/07/03 10:14:20;;;;;;;3.22;1.20;;;23.80;99.90;;;;;;5009645;28;20386;-65
2022/07/03 10:16:46;;;;;;;1.17;1.02;;;23.70;99.90;;;;;;5005919;28;20399;-66
2022/07/03 10:19:15;;;;;;;3.92;1.35;;;23.70;99.90;;;;;;5004851;28;20435;-65
2022/07/03 10:21:43;;;;;;;1.65;1.00;;;23.70;99.90;;;;;;5021627;28;20611;-65
2022/07/03 10:24:10;;;;;;;1.85;1.10;;;23.80;99.90;;;;;;5004297;28;20387;-65
2022/07/03 10:26:36;;;;;;;1.83;1.20;;;24.00;99.90;;;;;;5011642;28;20391;-64
2022/07/03 10:29:02;;;;;;;2.35;1.17;;;24.10;99.90;;;;;;5011117;28;20398;-65
2022/07/03 10:31:28;;;;;;;1.33;0.90;;;24.00;99.90;;;;;;5011051;28;20399;-64
2022/07/03 10:33:55;;;;;;;2.10;1.20;;;24.00;99.90;;;;;;5009364;28;20437;-65
2022/07/03 10:36:22;;;;;;;2.17;0.90;;;24.10;99.90;;;;;;5008569;28;20399;-65
2022/07/03 10:38:49;;;;;;;1.90;1.02;;;24.20;99.90;;;;;;5007060;28;20477;-65
2022/07/03 10:44:46;;;;;;;0.80;0.80;;;24.30;99.90;;;;;;5020293;28;20386;-65
2022/07/03 10:47:41;;;;;;;1.55;0.93;;;24.40;99.90;;;;;;5000055;28;20542;-64
2022/07/03 10:50:09;;;;;;;3.20;1.10;;;24.50;99.90;;;;;;4999300;28;20391;-65
2022/07/03 10:52:35;;;;;;;1.20;1.00;;;24.50;99.90;;;;;;5002381;28;20395;-65
2022/07/03 10:55:03;;;;;;;1.03;0.93;;;24.60;99.90;;;;;;5008493;28;20452;-65
2022/07/03 10:57:28;;;;;;;1.42;0.98;;;24.80;99.90;;;;;;5009464;28;20983;-65
2022/07/03 10:59:54;;;;;;;0.80;0.77;;;24.80;99.90;;;;;;5010781;28;21008;-65
2022/07/03 11:02:36;;;;;;;2.30;1.02;;;24.90;99.90;;;;;;5010629;28;20473;-65
2022/07/03 11:05:02;;;;;;;1.00;0.60;;;25.00;99.90;;;;;;5011863;28;20470;-65
2022/07/03 11:07:29;;;;;;;2.27;1.10;;;25.10;99.90;;;;;;5010479;28;20972;-65
2022/07/03 11:10:10;;;;;;;2.53;1.08;;;25.20;99.90;;;;;;5009034;28;20764;-65
2022/07/03 11:12:56;;;;;;;1.80;1.25;;;25.20;99.90;;;;;;5010227;28;20421;-66
2022/07/03 11:15:36;;;;;;;1.23;1.05;;;25.20;99.90;;;;;;5021267;28;20742;-65
2022/07/03 11:18:05;;;;;;;1.90;1.20;;;25.20;99.90;;;;;;5022879;28;20399;-66
2022/07/03 11:20:31;;;;;;;1.70;1.00;;;25.30;99.90;;;;;;5020395;28;20446;-66
2022/07/03 11:23:16;;;;;;;2.60;1.00;;;25.50;99.90;;;;;;5022068;28;20829;-66
2022/07/03 11:25:42;;;;;;;1.90;0.98;;;25.60;99.90;;;;;;5005849;28;20673;-66
2022/07/03 11:28:31;;;;;;;3.58;1.00;;;25.80;99.90;;;;;;5028675;28;20390;-66
2022/07/03 11:31:13;;;;;;;2.03;1.20;;;25.80;99.90;;;;;;5005954;28;20390;-66
2022/07/03 11:33:42;;;;;;;1.30;1.00;;;25.80;99.90;;;;;;4998286;28;20821;-65
2022/07/03 11:36:17;;;;;;;3.50;1.02;;;25.90;99.90;;;;;;4999331;28;20468;-65
2022/07/03 11:38:48;;;;;;;1.92;0.93;;;25.90;99.90;;;;;;5005337;28;20411;-65
2022/07/03 11:41:15;;;;;;;0.90;0.70;;;25.80;99.90;;;;;;5005252;28;21032;-65
2022/07/03 11:43:47;;;;;;;2.53;1.00;;;25.70;99.90;;;;;;5005338;28;20394;-65
2022/07/03 11:46:17;;;;;;;1.30;0.80;;;25.70;99.90;;;;;;5024947;28;20782;-65
2022/07/03 11:48:43;;;;;;;0.90;0.80;;;25.70;99.90;;;;;;5006546;28;20415;-65
2022/07/03 11:51:08;;;;;;;0.63;0.63;;;25.80;99.90;;;;;;5001751;28;20453;-64
2022/07/03 11:53:36;;;;;;;1.67;0.77;;;26.00;99.90;;;;;;4996387;28;20391;-65
2022/07/03 11:56:09;;;;;;;0.77;0.70;;;26.20;99.90;;;;;;5015575;28;20386;-65
2022/07/03 11:58:49;;;;;;;1.33;0.98;;;26.40;99.90;;;;;;4998714;28;20398;-65
2022/07/03 12:01:29;;;;;;;0.93;0.80;;;26.50;99.90;;;;;;4999494;28;20794;-65
2022/07/03 12:04:18;;;;;;;2.40;0.90;;;26.40;99.90;;;;;;4999176;28;20399;-65
2022/07/03 12:06:49;;;;;;;2.30;1.20;;;26.20;99.90;;;;;;5002322;28;20394;-65
2022/07/03 12:09:23;;;;;;;2.25;1.80;;;26.20;99.90;;;;;;4998353;28;20783;-64
2022/07/03 12:12:07;;;;;;;3.10;1.88;;;26.10;99.90;;;;;;4997251;28;20604;-65
2022/07/03 12:14:47;;;;;;;1.58;1.20;;;25.90;99.90;;;;;;4997741;28;20569;-65
2022/07/03 12:17:20;;;;;;;1.33;0.80;;;25.80;99.90;;;;;;5017662;28;20632;-65
2022/07/03 12:19:58;;;;;;;2.60;1.23;;;26.10;99.90;;;;;;5030821;28;20538;-65
2022/07/03 12:22:28;;;;;;;1.80;1.15;;;26.50;99.90;;;;;;5016062;28;20383;-65
2022/07/03 12:25:05;;;;;;;2.47;1.63;;;26.90;99.90;;;;;;5035079;28;20457;-65
2022/07/03 12:27:33;;;;;;;4.13;1.50;;;27.00;99.90;;;;;;5000200;28;20651;-65
2022/07/03 12:29:59;;;;;;;1.85;1.20;;;27.20;99.90;;;;;;5033708;28;20813;-65
2022/07/03 12:32:25;;;;;;;2.15;1.15;;;27.30;99.90;;;;;;5032281;28;20529;-65
2022/07/03 12:34:50;;;;;;;2.53;1.20;;;27.40;99.90;;;;;;5016391;28;20446;-65
2022/07/03 12:37:16;;;;;;;4.47;1.60;;;27.60;99.90;;;;;;4995717;28;20414;-65
2022/07/03 12:39:46;;;;;;;1.70;1.00;;;27.80;99.90;;;;;;4983803;28;20446;-65
2022/07/03 12:42:20;;;;;;;2.13;1.40;;;27.70;99.90;;;;;;4981693;28;20389;-65
2022/07/03 12:45:00;;;;;;;1.75;1.27;;;27.50;99.90;;;;;;4984168;28;20480;-65
2022/07/03 12:47:27;;;;;;;2.85;1.10;;;27.20;99.90;;;;;;4985701;28;20733;-65
2022/07/03 12:50:01;;;;;;;2.15;1.13;;;27.10;99.90;;;;;;4983629;28;20410;-65
2022/07/03 12:52:27;;;;;;;2.00;1.00;;;27.00;99.90;;;;;;4987151;28;20778;-65
2022/07/03 12:54:54;;;;;;;2.75;1.00;;;26.80;99.90;;;;;;4984616;28;20569;-65
2022/07/03 13:00:17;;;;;;;1.52;0.90;;;27.40;99.90;;;;;;4990416;28;20428;-65
2022/07/03 13:02:46;;;;;;;2.90;1.00;;;27.90;99.90;;;;;;4982960;28;20402;-65
2022/07/03 13:05:24;;;;;;;1.33;0.80;;;28.00;99.90;;;;;;4981148;28;20460;-65
2022/07/03 13:07:52;;;;;;;1.30;0.98;;;27.90;99.90;;;;;;4984305;28;20394;-65
2022/07/03 13:10:20;;;;;;;4.30;1.70;;;28.00;99.90;;;;;;4988234;28;20391;-66
2022/07/03 13:12:51;;;;;;;2.50;1.35;;;27.70;99.90;;;;;;4990068;28;20406;-67